Terminal Aerodrome Forecast
Issued by NWS Jackson, KY

Home | Current Version | Previous Version | Text Only | Print | Product List | Glossary On
Versions: 1 2 3 4 5 6 7 8 9 10 11 12 13 14 15 16 17 18 19 20 21 22 23 24 25 26 27 28 29 30
000
FTUS43 KJKL 202300
TAFJKL
TAF
KJKL 202340Z 2100/2124 VRB03KT P6SM VCSH SCT002 BKN050 OVC080
     FM210100 00000KT 6SM BR SCT080 BKN200
     FM210400 00000KT 4SM BR SCT250
     FM211000 00000KT 2SM BR FEW001 SCT250
     FM211300 VRB03KT 5SM BR SCT250
     FM211500 25006KT P6SM VCTS SCT020CB BKN040=

USA.gov is the U.S. government's official web portal to all federal, state and local government web resources and services.